x

Halibut Bank (46146) Wave Buoy

6:00am - Sat 21st Jan 2017 All times are PST. -8 hours from GMT.

  • Sig Wave height 1.0ft
  • Peak Period 3s
  • Wind
    13mph, 16mph gusts
  • Sea Temp 44°f
  • Air Temp 44°f
  • Sea Pressure 991.6mb
  • Halibut Bank
  • Halibut Bank

More Historic Weather Station data

Upgrade to MSW Pro to gain access to the past 30 days of data for over 8000 Wavebouys and Weather Stations around the globe.

Join Pro

Comparision Forecast

View Surf forecast
   
Sat 01/21 6:00am 1ft 3s 13 16 mph 991.6mb 44f 44f
5:00am 0.7ft 2s 11 13 mph 991.5mb 44f 44f
4:00am 0.7ft 2s 11 13 mph 991.3mb 45f 43f
3:00am 0.3ft 2s 9 13 mph 990.9mb 45f 44f
2:00am 0.3ft 2s 9 11 mph 990.3mb 45f 45f
1:00am 0.3ft 3s 9 13 mph 989.9mb 45f 45f
12:00am 0.3ft 7s  -  mph 989.5mb 45f 44f
Fri 01/20 11:00pm 0.7ft 6s 2 4 mph 989.4mb 45f 44f
10:00pm 0.3ft 3s 4
mph
988.9mb 45f 44f
9:00pm 0.7ft 7s 2
mph
988.7mb 46f 44f
8:00pm 0.7ft 3s 4 7 mph 988mb 46f 45f
7:00pm 0.7ft 3s 9 11 mph 987.6mb 46f 45f
6:00pm 0.7ft 2s 9 11 mph 987.4mb 46f 45f
5:00pm 0.7ft 2s 7 9 mph 987.2mb 45f 45f
4:00pm 0.7ft 2s 9
mph
987.1mb 45f 45f
3:00pm 1ft 2s 11
mph
986.9mb 45f 45f
2:00pm 0.7ft 4s 11 13 mph 986.9mb 45f 45f
1:00pm 0.7ft 4s 7 9 mph 987.3mb 45f 45f
12:00pm 0.7ft 3s 7 9 mph 987.9mb 45f 45f
11:00am 0.7ft 4s 7 9 mph 988.8mb 45f 44f
10:00am 1ft 4s 7 9 mph 989.3mb 45f 44f
9:00am 1.3ft 3s 9 11 mph 989.4mb 46f 44f
8:00am 1.3ft 3s 7 9 mph 989.6mb 46f 45f
7:00am 1.3ft 3s 9 11 mph 989.7mb 46f 46f
6:00am 1.3ft 3s 11 13 mph 990.6mb 46f 47f
5:00am 1.6ft 3s 13 18 mph 991.6mb 46f 46f
4:00am 1.6ft 3s 16 18 mph 992.8mb 46f 46f
3:00am 2.5ft 4s 18 20 mph 993.6mb 46f 46f
2:00am 2ft 4s 20 22 mph 994.2mb 46f 45f
1:00am 2.5ft 3s 20 25 mph 994.5mb 46f 45f
12:00am 2.5ft 4s 20 25 mph 995mb 46f 45f
Thu 01/19 11:00pm 2.5ft 3s 18 22 mph 995.7mb 46f 45f
10:00pm 2ft 3s 20 25 mph 995.6mb 46f 45f
9:00pm 2ft 3s 18 20 mph 995.8mb 46f 45f
8:00pm 2ft 3s 18 20 mph 995.9mb 46f 45f
7:00pm 2.5ft 4s 18 20 mph 995.9mb 47f 45f
6:00pm 2ft 3s 20 22 mph 996mb 46f 46f
5:00pm 1.6ft 3s 18 20 mph 996.2mb 46f 46f
4:00pm 1.6ft 3s 18 20 mph 996.2mb 46f 46f
3:00pm 1.6ft 4s 20 22 mph 995.8mb 46f 46f
2:00pm 2ft 3s 18 20 mph 995.8mb 46f 46f
1:00pm 2ft 3s 18 20 mph 996.2mb 47f 46f
12:00pm 2.5ft 4s 13 18 mph 996.4mb 46f 46f
11:00am 2.5ft 4s 16 18 mph 996.7mb 46f 46f
10:00am 2ft 3s 16 20 mph 996.6mb 46f 46f
9:00am 2ft 3s 18 20 mph 996.3mb 47f 45f
8:00am 2.5ft 4s 16 18 mph 995.8mb 46f 45f
7:00am 3ft 4s 20 22 mph 995.1mb 46f 45f
6:00am 3ft 4s 18 22 mph 994.9mb 46f 46f
5:00am 3.5ft 4s 20 27 mph 994.4mb 46f 46f
4:00am 2.5ft 3s 20 25 mph 994.1mb 46f 46f
3:00am 1.6ft 3s 22 27 mph 993.7mb 46f 46f
2:00am 1ft 2s 18 22 mph 992.8mb 46f 45f
1:00am 0.7ft 4s 11 16 mph 991.5mb 46f 46f
12:00am 1ft 3s 9
mph
990.3mb 46f 46f
Wed 01/18 11:00pm 1ft 4s 9
mph
989.9mb 46f 46f
10:00pm 1.3ft 3s 11
mph
989.3mb 46f 46f
9:00pm 1.3ft 3s 13 16 mph 988.8mb 46f 46f
8:00pm 1.6ft 3s 16 18 mph 989.1mb 46f 47f
7:00pm 1.6ft 3s 16 20 mph 988.7mb 46f 48f
6:00pm 2ft 3s 16 18 mph 989mb 46f 48f
5:00pm 2.5ft 4s 16 20 mph 989.5mb 46f 48f
4:00pm 2.5ft 4s 13 16 mph 990mb 46f 48f
3:00pm 3.5ft 5s 22 25 mph 990.1mb 46f 49f
2:00pm 3.5ft 4s 20 25 mph 989.9mb 46f 48f
1:00pm 3.5ft 4s 22 25 mph 989.7mb 46f 48f
12:00pm 4ft 5s 27 34 mph 989.4mb 46f 48f
11:00am 4ft 4s 27 31 mph 988.9mb 46f 48f
10:00am 3.5ft 4s 27 31 mph 988.8mb 46f 48f
9:00am 3ft 4s 25 29 mph 988.4mb 45f 47f
8:00am 3ft 4s 22 29 mph 989mb 45f 47f
7:00am 3.5ft 4s 25 29 mph 989.8mb 45f 47f
6:00am 3.5ft 4s 22 27 mph 991.2mb 45f 48f
5:00am 3.5ft 4s 25 29 mph 991.3mb 45f 47f
4:00am 3.5ft 4s 27 31 mph 991.9mb 45f 48f
3:00am 4.5ft 5s 27 31 mph 992.6mb 45f 48f
2:00am 4.5ft 5s 25 27 mph 993.5mb 45f 47f
1:00am 4.5ft 5s 27 31 mph 993.8mb 45f 47f
12:00am 4.5ft 6s 27 34 mph 993.5mb 45f 47f
Tue 01/17 11:00pm 4.5ft 5s 27 31 mph 993.4mb 45f 47f
10:00pm 5ft 5s 27 34 mph 992.8mb 45f 47f
9:00pm 4.5ft 5s 29 36 mph 992.4mb 45f 47f
8:00pm 3.5ft 4s 29 34 mph 992.7mb 45f 47f
7:00pm 3.5ft 4s 27 34 mph 993.2mb 45f 47f
6:00pm 3.5ft 4s 27 34 mph 993.5mb 45f 48f
5:00pm 4.5ft 5s 25 29 mph 995.3mb 45f 47f
4:00pm 4.5ft 4s 29 34 mph 996.4mb 45f 47f